Time;durP1;ratioP1;P1;durP2;ratioP2;P2;SDS_P1;SDS_P2;PMS_P1;PMS_P2;Temp;Humidity;BMP_temperature;BMP_pressure;BME280_temperature;BME280_humidity;BME280_pressure;Samples;Min_cycle;Max_cycle;Signal;HPM_P1;HPM_P2
2023/02/10 00:01:37;;;;;;;32.83;18.27;;;;;;;-2.92;61.60;100737.13;5092226;28;42891;-81
2023/02/10 00:04:06;;;;;;;34.00;18.33;;;;;;;-2.93;61.83;100741.44;5093346;28;42134;-81
2023/02/10 00:06:34;;;;;;;32.57;19.20;;;;;;;-3.06;61.90;100717.81;5075142;28;39047;-82
2023/02/10 00:09:02;;;;;;;30.50;17.17;;;;;;;-3.09;61.71;100722.94;5074564;28;41963;-81
2023/02/10 00:14:20;;;;;;;29.37;16.83;;;;;;;-3.02;61.53;100748.13;5075588;28;41243;-81
2023/02/10 00:16:51;;;;;;;26.17;14.97;;;;;;;-3.03;61.68;100751.56;5092400;28;40543;-81
2023/02/10 00:19:19;;;;;;;29.37;16.93;;;;;;;-3.17;61.53;100730.53;5092206;28;41936;-81
2023/02/10 00:21:47;;;;;;;31.87;17.70;;;;;;;-3.44;61.64;100691.91;5092150;28;42806;-82
2023/02/10 00:24:15;;;;;;;31.87;17.80;;;;;;;-3.10;62.07;100750.56;5091955;28;42325;-81
2023/02/10 00:26:43;;;;;;;34.63;19.20;;;;;;;-3.19;62.51;100739.97;5091962;28;41667;-82
2023/02/10 00:29:11;;;;;;;30.07;18.00;;;;;;;-3.12;62.84;100753.97;5075003;28;42205;-81
2023/02/10 00:31:42;;;;;;;36.47;20.10;;;;;;;-3.13;62.79;100752.22;5075238;28;42725;-81
2023/02/10 00:34:15;;;;;;;31.00;18.27;;;;;;;-3.37;62.82;100716.25;5074990;28;41101;-81
2023/02/10 00:36:43;;;;;;;43.33;24.03;;;;;;;-3.20;62.71;100753.78;5074843;28;40345;-81
2023/02/10 00:39:13;;;;;;;36.70;20.53;;;;;;;-3.17;62.84;100763.34;5075024;28;40796;-82
2023/02/10 00:41:41;;;;;;;33.60;20.07;;;;;;;-3.24;62.96;100748.50;5090554;28;43715;-82
2023/02/10 00:44:10;;;;;;;37.00;20.60;;;;;;;-3.20;62.90;100765.84;5097188;28;40936;-82
2023/02/10 00:46:38;;;;;;;33.97;19.77;;;;;;;-3.32;62.79;100745.72;5081008;28;40322;-82
2023/02/10 00:49:08;;;;;;;31.53;17.30;;;;;;;-3.47;63.13;100722.94;5081267;28;40751;-81
2023/02/10 00:51:36;;;;;;;33.47;18.33;;;;;;;-3.25;63.33;100773.53;5098090;28;42546;-82
2023/02/10 00:54:04;;;;;;;38.43;21.20;;;;;;;-3.26;64.81;100767.47;5078351;28;42785;-82
2023/02/10 00:56:32;;;;;;;36.37;20.47;;;;;;;-3.40;63.94;100753.31;5091909;28;41062;-82
2023/02/10 00:58:59;;;;;;;34.47;19.80;;;;;;;-3.39;63.74;100760.25;5074935;28;41963;-82
2023/02/10 01:01:27;;;;;;;32.37;18.93;;;;;;;-3.32;63.73;100772.50;5074816;28;43711;-82
2023/02/10 01:03:55;;;;;;;31.10;17.77;;;;;;;-3.32;63.90;100777.69;5091834;28;42293;-82
2023/02/10 01:06:24;;;;;;;38.60;19.90;;;;;;;-3.31;63.99;100781.13;5091777;28;39949;-82
2023/02/10 01:08:52;;;;;;;30.03;17.90;;;;;;;-3.44;63.99;100759.25;5074511;28;40626;-80
2023/02/10 01:11:20;;;;;;;32.73;18.83;;;;;;;-3.43;63.97;100773.06;5092356;28;43714;-81
2023/02/10 01:13:48;;;;;;;38.87;21.30;;;;;;;-3.36;63.74;100790.53;5074629;28;41606;-82
2023/02/10 01:16:17;;;;;;;39.53;21.03;;;;;;;-3.55;63.73;100767.59;5092628;28;39808;-81
2023/02/10 01:18:45;;;;;;;33.70;17.23;;;;;;;-3.52;63.82;100773.75;5074476;28;40629;-81
2023/02/10 01:21:16;;;;;;;29.83;16.77;;;;;;;-3.43;63.92;100802.44;5092837;28;43269;-82
2023/02/10 01:23:46;;;;;;;27.70;16.33;;;;;;;-3.45;63.66;100801.53;5077870;28;41226;-82
2023/02/10 01:26:15;;;;;;;30.20;16.90;;;;;;;-3.48;63.77;100796.28;5077943;28;38955;-82
2023/02/10 01:28:43;;;;;;;26.93;15.07;;;;;;;-3.53;63.69;100810.81;5078041;28;40979;-82
2023/02/10 01:31:14;;;;;;;27.33;16.53;;;;;;;-3.58;63.95;100789.09;5077781;28;41894;-82
2023/02/10 01:33:42;;;;;;;31.97;16.80;;;;;;;-3.58;63.79;100803.75;5094581;28;43769;-82
2023/02/10 01:36:12;;;;;;;31.27;17.03;;;;;;;-3.58;63.75;100815.00;5077508;28;40758;-81
2023/02/10 01:38:41;;;;;;;30.30;16.57;;;;;;;-3.60;64.12;100815.81;5094502;28;42451;-82
2023/02/10 01:41:11;;;;;;;36.10;20.03;;;;;;;-3.62;63.81;100813.19;5077297;28;42941;-82
2023/02/10 01:43:54;;;;;;;32.20;16.77;;;;;;;-3.65;64.16;100823.47;5094661;28;42422;-82
2023/02/10 01:46:22;;;;;;;34.83;19.13;;;;;;;-3.80;63.90;100797.16;5077246;28;40217;-82
2023/02/10 01:48:51;;;;;;;32.83;18.30;;;;;;;-3.83;64.13;100797.13;5094430;28;41430;-82
2023/02/10 01:51:25;;;;;;;26.67;15.97;;;;;;;-3.72;64.47;100821.56;5077595;28;43346;-82
2023/02/10 01:53:53;;;;;;;31.00;17.97;;;;;;;-3.73;64.77;100814.63;5077684;28;41372;-82
2023/02/10 01:56:23;;;;;;;31.40;18.87;;;;;;;-3.75;64.48;100816.31;5077427;28;40029;-81
2023/02/10 01:58:51;;;;;;;32.87;17.80;;;;;;;-3.85;64.39;100798.78;5077401;28;42226;-81
2023/02/10 02:01:18;;;;;;;35.63;19.60;;;;;;;-3.90;64.41;100800.34;5094318;28;43576;-81
2023/02/10 02:03:47;;;;;;;30.57;16.47;;;;;;;-3.90;64.29;100800.34;5077299;28;41322;-82
2023/02/10 02:06:15;;;;;;;30.77;17.63;;;;;;;-3.80;64.41;100820.47;5077224;28;38881;-82
2023/02/10 02:08:43;;;;;;;34.47;19.03;;;;;;;-3.81;64.52;100813.53;5094326;28;42750;-82
2023/02/10 02:11:20;;;;;;;31.93;20.20;;;;;;;-3.82;65.36;100809.19;5076855;28;43345;-82
2023/02/10 02:14:15;;;;;;;39.80;21.23;;;;;;;-3.84;65.32;100805.72;5091290;28;42139;-82
2023/02/10 02:16:55;;;;;;;33.40;18.43;;;;;;;-3.85;65.13;100811.72;5085894;28;41244;-81
2023/02/10 02:20:40;;;;;;;33.23;19.23;;;;;;;-3.88;65.00;100814.22;5076880;28;43546;-82
2023/02/10 02:23:07;;;;;;;31.90;17.57;;;;;;;-3.91;65.19;100830.53;5073084;28;44948;-82
2023/02/10 02:25:55;;;;;;;36.70;19.33;;;;;;;-3.93;64.94;100821.84;5094634;28;42610;-81
2023/02/10 02:28:35;;;;;;;31.27;18.43;;;;;;;-4.08;65.10;100811.94;5094418;28;39890;-81
2023/02/10 02:31:28;;;;;;;31.93;17.77;;;;;;;-4.10;65.30;100811.06;5091043;28;41708;-81
2023/02/10 02:34:02;;;;;;;36.17;20.00;;;;;;;-4.01;64.83;100828.53;5064893;28;43388;-82
2023/02/10 02:36:33;;;;;;;31.90;18.17;;;;;;;-4.13;64.97;100818.72;5077064;28;41181;-82
2023/02/10 02:39:02;;;;;;;30.83;17.80;;;;;;;-4.05;65.17;100822.38;5094554;28;40037;-82
2023/02/10 02:41:33;;;;;;;33.07;18.67;;;;;;;-4.08;65.42;100824.88;5076949;28;42060;-81
2023/02/10 02:44:03;;;;;;;35.90;19.23;;;;;;;-4.35;65.26;100785.34;5077024;28;43334;-82
2023/02/10 02:46:44;;;;;;;39.57;21.60;;;;;;;-4.23;65.09;100816.72;5077148;28;42341;-82
2023/02/10 02:49:21;;;;;;;39.40;20.70;;;;;;;-4.24;65.24;100817.56;5090704;28;40243;-82
2023/02/10 02:51:57;;;;;;;34.43;18.33;;;;;;;-4.16;65.08;100833.28;5092533;28;41737;-82
2023/02/10 02:54:28;;;;;;;33.40;18.33;;;;;;;-4.19;65.04;100833.19;5076955;28;44333;-82
2023/02/10 02:57:08;;;;;;;34.77;16.57;;;;;;;-4.39;64.94;100806.75;5094465;28;42696;-82
2023/02/10 02:59:41;;;;;;;37.77;19.90;;;;;;;-4.36;64.89;100824.97;5091028;28;40714;-82
2023/02/10 03:02:12;;;;;;;30.13;16.67;;;;;;;-4.27;65.11;100834.69;5076776;28;41755;-82
2023/02/10 03:04:43;;;;;;;29.70;16.87;;;;;;;-4.37;65.09;100830.97;5076540;28;42186;-82
2023/02/10 03:07:11;;;;;;;27.73;15.50;;;;;;;-4.30;64.94;100850.09;5093176;28;42205;-82
2023/02/10 03:09:39;;;;;;;38.93;20.60;;;;;;;-4.32;65.55;100852.66;5094504;28;39955;-82
2023/02/10 03:12:08;;;;;;;32.07;16.80;;;;;;;-4.36;65.44;100840.47;5093490;28;42649;-81
2023/02/10 03:14:36;;;;;;;31.70;17.80;;;;;;;-4.33;65.51;100848.34;5093577;28;43602;-81
2023/02/10 03:17:04;;;;;;;28.77;17.17;;;;;;;-4.35;65.45;100844.81;5093498;28;42280;-82
2023/02/10 03:19:31;;;;;;;28.40;16.00;;;;;;;-4.41;65.48;100837.75;5093599;28;40037;-81
2023/02/10 03:22:01;;;;;;;29.37;16.70;;;;;;;-4.36;65.39;100848.25;5093379;28;42177;-81
2023/02/10 03:24:29;;;;;;;37.43;21.00;;;;;;;-4.36;65.83;100841.38;5093313;28;41663;-82
2023/02/10 03:26:57;;;;;;;39.57;19.63;;;;;;;-4.37;66.75;100838.72;5094336;28;42234;-81
2023/02/10 03:29:24;;;;;;;38.37;20.20;;;;;;;-4.33;66.49;100845.75;5076197;28;40926;-81
2023/02/10 03:31:52;;;;;;;38.27;21.83;;;;;;;-4.32;66.56;100842.31;5075727;28;40522;-82
2023/02/10 03:34:20;;;;;;;37.53;21.53;;;;;;;-4.32;66.82;100847.47;5094150;28;43580;-82
2023/02/10 03:36:48;;;;;;;35.83;20.10;;;;;;;-4.32;66.75;100841.41;5076078;28;42101;-82
2023/02/10 03:39:17;;;;;;;35.97;19.13;;;;;;;-4.33;66.82;100845.75;5075830;28;41474;-81
2023/02/10 03:41:45;;;;;;;40.73;21.33;;;;;;;-4.34;67.05;100838.81;5092759;28;42485;-81
2023/02/10 03:44:13;;;;;;;35.57;20.33;;;;;;;-4.33;68.14;100834.53;5091954;28;41599;-81
2023/02/10 03:46:41;;;;;;;39.50;20.57;;;;;;;-4.46;69.04;100818.66;5075797;28;41365;-81
2023/02/10 03:49:09;;;;;;;43.23;22.47;;;;;;;-4.45;69.59;100810.03;5075536;28;39195;-81
2023/02/10 03:51:37;;;;;;;43.30;22.47;;;;;;;-4.28;69.21;100844.16;5094002;28;41837;-82
2023/02/10 03:54:04;;;;;;;41.30;21.17;;;;;;;-4.37;70.36;100825.78;5075560;28;43257;-81
2023/02/10 03:56:34;;;;;;;40.53;21.40;;;;;;;-4.23;70.79;100842.59;5092465;28;41955;-81
2023/02/10 03:59:03;;;;;;;46.13;23.97;;;;;;;-4.22;70.74;100840.88;5092787;28;40956;-81
2023/02/10 04:01:31;;;;;;;37.03;20.93;;;;;;;-4.24;70.55;100846.00;5075261;28;40461;-81
2023/02/10 04:03:58;;;;;;;42.80;22.10;;;;;;;-4.30;69.83;100829.41;5075864;28;43058;-82
2023/02/10 04:06:26;;;;;;;29.43;18.53;;;;;;;-4.35;69.42;100832.78;5092467;28;43344;-81
2023/02/10 04:08:54;;;;;;;35.60;18.93;;;;;;;-4.28;69.18;100846.75;5075358;28;39319;-82
2023/02/10 04:11:21;;;;;;;32.50;17.70;;;;;;;-4.48;68.79;100819.44;5092374;28;43445;-81
2023/02/10 04:13:50;;;;;;;34.77;17.60;;;;;;;-4.30;68.64;100853.56;5092342;28;41832;-81
2023/02/10 04:16:22;;;;;;;27.63;17.40;;;;;;;-4.67;68.46;100796.44;5092777;28;42536;-81
2023/02/10 04:18:50;;;;;;;25.57;15.03;;;;;;;-4.32;68.25;100851.78;5075679;28;40181;-81
2023/02/10 04:21:17;;;;;;;24.53;15.50;;;;;;;-4.34;68.27;100854.34;5092152;28;41908;-81
2023/02/10 04:23:45;;;;;;;27.67;15.33;;;;;;;-4.37;68.43;100867.19;5092459;28;42960;-80
2023/02/10 04:26:13;;;;;;;31.03;16.33;;;;;;;-4.43;68.25;100862.69;5092120;28;42171;-81
2023/02/10 04:28:41;;;;;;;32.53;17.40;;;;;;;-4.51;68.23;100853.84;5093427;28;40961;-81
2023/02/10 04:31:11;;;;;;;31.50;16.33;;;;;;;-4.88;68.22;100784.66;5091958;28;40749;-81
2023/02/10 04:33:39;;;;;;;28.80;16.00;;;;;;;-4.47;68.06;100862.56;5092189;28;43176;-81
2023/02/10 04:36:08;;;;;;;24.27;15.07;;;;;;;-4.70;67.69;100834.28;5091970;28;43711;-81
2023/02/10 04:38:35;;;;;;;24.60;14.10;;;;;;;-4.48;67.82;100874.63;5091884;28;40059;-80
2023/02/10 04:41:04;;;;;;;27.37;15.33;;;;;;;-4.52;67.66;100875.34;5093138;28;41824;-81
2023/02/10 04:43:33;;;;;;;26.87;15.73;;;;;;;-4.65;67.56;100865.47;5091988;28;43843;-81
2023/02/10 04:46:02;;;;;;;30.73;17.47;;;;;;;-4.54;67.76;100889.06;5092177;28;43026;-81
2023/02/10 04:48:32;;;;;;;25.50;14.60;;;;;;;-4.53;67.90;100893.38;5091962;28;39917;-80
2023/02/10 04:51:00;;;;;;;32.40;17.70;;;;;;;-4.64;67.98;100879.25;5091754;28;43502;-81
2023/02/10 04:53:27;;;;;;;26.57;14.87;;;;;;;-4.57;68.01;100896.72;5091775;28;42728;-81
2023/02/10 04:55:55;;;;;;;34.97;17.40;;;;;;;-4.55;68.12;100893.34;5077657;28;42707;-81
2023/02/10 04:58:23;;;;;;;38.93;19.03;;;;;;;-4.53;68.24;100901.16;5095695;28;41079;-81
2023/02/10 05:00:51;;;;;;;33.57;18.07;;;;;;;-4.52;68.11;100911.53;5078542;28;43054;-81
2023/02/10 05:03:19;;;;;;;23.50;16.40;;;;;;;-4.48;67.77;100915.09;5078176;28;42815;-80
2023/02/10 05:05:51;;;;;;;28.00;15.23;;;;;;;-4.61;67.91;100884.53;5095507;28;42494;-80
2023/02/10 05:08:19;;;;;;;31.90;16.93;;;;;;;-4.41;68.13;100912.75;5078499;28;39950;-80
2023/02/10 05:10:47;;;;;;;25.83;15.03;;;;;;;-4.39;67.96;100913.69;5096675;28;42529;-81
2023/02/10 05:13:15;;;;;;;30.00;17.10;;;;;;;-4.49;67.83;100895.25;5077894;28;41970;-80
2023/02/10 05:15:43;;;;;;;27.87;14.23;;;;;;;-4.38;67.80;100924.91;5078232;28;41192;-81
2023/02/10 05:18:12;;;;;;;31.37;17.00;;;;;;;-4.44;67.60;100914.34;5078029;28;41084;-81
2023/02/10 05:20:40;;;;;;;33.13;19.33;;;;;;;-4.45;67.79;100918.66;5078101;28;40974;-80
2023/02/10 05:23:09;;;;;;;29.37;17.33;;;;;;;-4.42;67.92;100928.22;5095189;28;42616;-81
2023/02/10 05:25:37;;;;;;;33.37;16.10;;;;;;;-4.52;67.90;100905.50;5094961;28;42337;-81
2023/02/10 05:28:04;;;;;;;29.70;16.17;;;;;;;-4.37;67.93;100926.66;5095114;28;41064;-80
2023/02/10 05:30:32;;;;;;;27.70;15.57;;;;;;;-4.37;67.97;100926.66;5095238;28;41815;-80
2023/02/10 05:33:00;;;;;;;31.83;17.23;;;;;;;-4.35;68.04;100927.59;5077735;28;43152;-80
2023/02/10 05:35:28;;;;;;;27.43;15.73;;;;;;;-4.35;68.26;100927.59;5060788;28;42087;-80
2023/02/10 05:37:56;;;;;;;35.00;19.43;;;;;;;-4.32;68.37;100930.25;5094490;28;39957;-80
2023/02/10 05:40:25;;;;;;;38.57;21.23;;;;;;;-4.25;69.66;100915.81;5077491;28;41059;-80
2023/02/10 05:42:53;;;;;;;38.80;20.60;;;;;;;-4.14;69.99;100925.63;5077829;28;41973;-80
2023/02/10 05:45:21;;;;;;;40.50;22.10;;;;;;;-4.13;69.68;100906.69;5094667;28;42843;-80
2023/02/10 05:47:48;;;;;;;37.97;20.40;;;;;;;-3.90;69.90;100922.00;5095696;28;40108;-81
2023/02/10 05:50:16;;;;;;;40.03;20.70;;;;;;;-3.79;69.27;100934.41;5077464;28;40631;-80
2023/02/10 05:52:46;;;;;;;34.33;19.87;;;;;;;-3.66;69.42;100926.16;5077361;28;44566;-80
2023/02/10 05:55:14;;;;;;;39.30;20.17;;;;;;;-3.44;68.86;100937.97;5077580;28;41276;-80
2023/02/10 05:57:43;;;;;;;36.07;19.17;;;;;;;-3.41;68.40;100930.28;5094617;28;40971;-80
2023/02/10 06:00:12;;;;;;;34.63;19.57;;;;;;;-3.23;68.47;100936.81;5094358;28;42332;-80
2023/02/10 06:02:40;;;;;;;30.27;17.90;;;;;;;-3.55;68.39;100869.47;5094223;28;43548;-81
2023/02/10 06:05:08;;;;;;;32.43;18.50;;;;;;;-3.07;68.28;100951.88;5094472;28;42407;-81
2023/02/10 06:07:36;;;;;;;33.50;18.23;;;;;;;-3.14;68.65;100926.66;5093270;28;41507;-80
2023/02/10 06:10:04;;;;;;;32.43;19.50;;;;;;;-2.92;68.58;100952.28;5077412;28;42157;-81
2023/02/10 06:12:32;;;;;;;35.17;18.90;;;;;;;-2.85;68.39;100962.00;5094087;28;43384;-82
2023/02/10 06:15:02;;;;;;;32.47;17.43;;;;;;;-2.76;68.30;100958.75;5077194;28;42647;-84
2023/02/10 06:17:31;;;;;;;33.37;19.83;;;;;;;-2.82;68.81;100928.34;5094108;28;39910;-81
2023/02/10 06:19:59;;;;;;;43.77;23.83;;;;;;;-2.59;68.89;100955.69;5077131;28;41984;-82
2023/02/10 06:22:27;;;;;;;39.30;22.87;;;;;;;-2.49;68.50;100955.94;5094461;28;43071;-82
2023/02/10 06:24:54;;;;;;;35.87;20.73;;;;;;;-2.40;68.17;100951.84;5076877;28;42756;-84
2023/02/10 06:27:22;;;;;;;42.80;22.33;;;;;;;-2.42;68.64;100943.13;5076781;28;39235;-81
2023/02/10 06:29:50;;;;;;;43.10;22.93;;;;;;;-2.25;69.14;100966.88;5093857;28;42412;-83
2023/02/10 08:13:43;;;;;;;48.17;25.77;;;;;;;-2.09;88.15;100984.53;5068720;28;21074;-86
2023/02/10 08:16:11;;;;;;;44.90;24.60;;;;;;;-1.49;86.91;100991.91;5050621;28;39154;-87
2023/02/10 08:18:40;;;;;;;44.43;26.60;;;;;;;-0.77;83.02;101010.63;5051200;28;44332;-81
2023/02/10 08:21:08;;;;;;;44.30;25.90;;;;;;;-0.30;79.62;101014.84;5050421;28;42662;-82
2023/02/10 08:23:36;;;;;;;41.17;24.03;;;;;;;0.22;77.20;101034.75;5084220;28;43647;-82
2023/02/10 08:26:08;;;;;;;42.47;24.40;;;;;;;0.53;75.64;101041.25;5067410;28;40204;-79
2023/02/10 08:28:37;;;;;;;40.53;25.27;;;;;;;0.87;74.02;101048.63;5065076;28;41540;-83
2023/02/10 08:31:08;;;;;;;45.47;25.67;;;;;;;1.12;73.02;101061.94;5050119;28;44308;-84
2023/02/10 08:33:37;;;;;;;42.93;25.53;;;;;;;1.33;72.37;101054.38;5064792;28;42383;-84
2023/02/10 08:36:06;;;;;;;40.00;25.30;;;;;;;1.48;71.49;101054.50;5067159;28;39132;-83
2023/02/10 08:38:33;;;;;;;45.10;27.13;;;;;;;1.53;70.62;101042.34;5050989;28;40641;-80
2023/02/10 08:41:01;;;;;;;42.43;26.47;;;;;;;1.73;69.62;101060.84;5050302;28;43859;-84
2023/02/10 08:43:29;;;;;;;44.37;25.70;;;;;;;1.77;69.37;101047.78;5050713;28;41497;-82
2023/02/10 08:45:57;;;;;;;41.07;25.10;;;;;;;1.99;68.90;101059.28;5050401;28;38952;-84
2023/02/10 08:48:27;;;;;;;45.00;27.13;;;;;;;2.16;68.25;101062.91;5067431;28;40890;-87
2023/02/10 08:50:55;;;;;;;44.13;26.40;;;;;;;2.28;67.41;101067.34;5047756;28;42412;-84
2023/02/10 08:53:23;;;;;;;40.40;24.67;;;;;;;2.41;67.18;101073.50;5050739;28;40962;-84
2023/02/10 08:55:57;;;;;;;39.07;25.20;;;;;;;2.56;67.07;101077.97;5049880;28;39182;-79
2023/02/10 08:58:25;;;;;;;41.67;26.20;;;;;;;2.53;66.36;101055.28;5067711;28;42418;-83
2023/02/10 09:00:53;;;;;;;48.03;27.80;;;;;;;2.66;65.48;101066.69;5043096;28;41794;-84
2023/02/10 09:03:21;;;;;;;46.53;28.97;;;;;;;2.81;65.31;101071.97;5050133;28;44470;-82
2023/02/10 09:05:51;;;;;;;44.63;27.27;;;;;;;2.95;65.13;101074.66;5067370;28;40136;-84
2023/02/10 09:08:19;;;;;;;46.87;27.93;;;;;;;3.03;64.95;101071.19;5067044;28;40553;-84
2023/02/10 09:10:47;;;;;;;41.93;26.07;;;;;;;3.23;64.81;101085.22;5050145;28;41958;-85
2023/02/10 09:13:15;;;;;;;40.73;25.43;;;;;;;3.37;64.43;101084.38;5049705;28;43993;-82
2023/02/10 09:15:43;;;;;;;43.63;27.23;;;;;;;3.48;63.87;101087.88;5066127;28;38892;-88
2023/02/10 09:18:11;;;;;;;42.63;27.37;;;;;;;3.48;63.35;101075.66;5049995;28;40525;-86
2023/02/10 09:20:40;;;;;;;41.87;27.43;;;;;;;3.63;62.74;101095.78;5066222;28;42665;-86
2023/02/10 09:23:09;;;;;;;39.90;26.27;;;;;;;3.77;62.56;101090.56;5063686;28;42244;-81
2023/02/10 09:25:37;;;;;;;44.93;26.87;;;;;;;3.83;62.43;101101.91;5052716;28;40012;-82
2023/02/10 09:28:04;;;;;;;42.40;26.70;;;;;;;3.69;62.25;101058.25;5054295;28;41957;-80
2023/02/10 09:30:32;;;;;;;42.23;26.93;;;;;;;3.92;61.74;101086.22;5052731;28;43512;-83
2023/02/10 09:33:00;;;;;;;43.43;27.30;;;;;;;4.08;61.25;101100.16;5036241;28;43342;-83
2023/02/10 09:35:28;;;;;;;39.90;25.67;;;;;;;4.12;61.03;101101.03;5036138;28;39367;-85
2023/02/10 09:37:56;;;;;;;44.93;27.50;;;;;;;4.25;60.28;101108.91;5052705;28;42546;-82
2023/02/10 09:40:28;;;;;;;41.57;26.77;;;;;;;4.39;60.57;101105.41;5052173;28;43954;-82
2023/02/10 09:43:08;;;;;;;39.47;25.67;;;;;;;4.55;60.27;101109.75;5052701;28;43103;-82
2023/02/10 09:45:40;;;;;;;44.50;26.40;;;;;;;4.64;59.52;101118.47;5049762;28;40954;-91
2023/02/10 09:48:23;;;;;;;45.13;26.87;;;;;;;4.59;59.16;101114.09;5069820;28;40786;-84
2023/02/10 09:51:00;;;;;;;41.87;26.90;;;;;;;4.77;59.55;101121.94;5035885;28;42472;-82
2023/02/10 09:53:31;;;;;;;43.10;27.33;;;;;;;4.86;59.16;101119.28;5036127;28;41306;-82
2023/02/10 09:56:02;;;;;;;41.23;25.83;;;;;;;4.97;59.27;101120.13;5052071;28;39530;-81
2023/02/10 09:58:37;;;;;;;43.50;27.47;;;;;;;5.05;57.97;101131.50;5036193;28;41847;-81
2023/02/10 10:01:15;;;;;;;40.47;26.03;;;;;;;5.11;57.83;101130.56;5052038;28;44158;-84
2023/02/10 10:03:49;;;;;;;38.87;25.83;;;;;;;5.15;57.81;101127.06;5035881;28;42801;-84
2023/02/10 10:06:25;;;;;;;44.60;27.20;;;;;;;5.24;57.39;101118.25;5035168;28;39555;-86
2023/02/10 10:09:03;;;;;;;39.73;27.27;;;;;;;5.12;56.81;101100.81;5083198;28;41686;-82
2023/02/10 10:11:38;;;;;;;38.87;25.67;;;;;;;5.42;56.85;101131.31;5034803;28;43492;-83
2023/02/10 10:14:16;;;;;;;38.80;25.67;;;;;;;5.49;56.73;101137.41;5052242;28;40757;-82
2023/02/10 10:16:54;;;;;;;42.00;26.07;;;;;;;5.60;56.98;101148.72;5051982;28;40393;-81
2023/02/10 10:19:33;;;;;;;39.97;25.83;;;;;;;5.65;56.71;101150.47;5035633;28;41889;-82
2023/02/10 10:22:13;;;;;;;37.30;24.70;;;;;;;5.81;56.66;101156.47;5051708;28;43280;-82
2023/02/10 10:25:08;;;;;;;40.90;27.27;;;;;;;5.86;56.26;101141.56;5051579;28;41123;-80
2023/02/10 10:27:53;;;;;;;40.20;26.07;;;;;;;6.05;55.33;101156.38;5035077;28;40597;-85
2023/02/10 10:30:29;;;;;;;38.67;25.97;;;;;;;6.17;55.11;101162.44;5049214;28;41720;-88
2023/02/10 10:33:01;;;;;;;39.27;27.27;;;;;;;6.31;54.94;101153.50;5085680;28;41716;-84
2023/02/10 10:35:35;;;;;;;39.03;25.70;;;;;;;6.37;54.58;101157.88;5050619;28;41098;-83
2023/02/10 10:38:12;;;;;;;42.53;26.57;;;;;;;6.39;54.71;101135.03;5052102;28;38709;-83
2023/02/10 10:40:41;;;;;;;39.60;26.67;;;;;;;6.57;54.02;101158.53;5049934;28;42758;-84
2023/02/10 10:43:18;;;;;;;43.77;27.23;;;;;;;6.61;53.69;101151.50;5035443;28;42951;-80
2023/02/10 10:45:50;;;;;;;40.03;24.50;;;;;;;6.74;53.96;101154.00;5034630;28;43582;-79
2023/02/10 10:48:25;;;;;;;38.67;26.13;;;;;;;6.67;53.30;101136.53;5035062;28;39938;-82
2023/02/10 10:50:53;;;;;;;40.77;26.77;;;;;;;6.72;53.04;101145.25;5051261;28;40541;-85
2023/02/10 10:53:28;;;;;;;37.57;25.70;;;;;;;6.88;53.01;101153.00;5051211;28;43006;-82
2023/02/10 10:55:58;;;;;;;37.57;24.67;;;;;;;7.00;52.96;101152.84;5050605;28;43113;-79
2023/02/10 10:58:29;;;;;;;35.17;23.23;;;;;;;7.09;53.04;101156.25;5068106;28;40686;-80
2023/02/10 11:00:59;;;;;;;38.53;24.50;;;;;;;7.10;52.17;101157.13;5051066;28;42245;-81
2023/02/10 11:03:28;;;;;;;37.10;24.80;;;;;;;7.05;52.32;101148.38;5034416;28;42454;-82
2023/02/10 11:06:01;;;;;;;36.10;23.77;;;;;;;7.08;52.60;101143.97;5050660;28;40695;-82
2023/02/10 11:08:34;;;;;;;34.00;23.67;;;;;;;7.04;52.39;101141.41;5051277;28;40071;-80
2023/02/10 11:11:03;;;;;;;38.03;24.90;;;;;;;7.05;52.46;101136.09;5048034;28;41908;-81
2023/02/10 11:13:35;;;;;;;37.73;23.60;;;;;;;7.12;52.50;101148.31;5050762;28;41983;-81
2023/02/10 11:16:06;;;;;;;37.57;23.33;;;;;;;7.18;51.91;101144.72;5034252;28;43797;-84
2023/02/10 11:18:34;;;;;;;37.77;24.10;;;;;;;6.89;52.02;101078.34;5082436;28;40933;-81
2023/02/10 11:21:06;;;;;;;35.33;23.37;;;;;;;7.31;51.87;101141.03;5034320;28;40585;-82
2023/02/10 11:23:38;;;;;;;35.07;24.17;;;;;;;7.34;51.83;101135.75;5034657;28;44343;-83
2023/02/10 11:26:07;;;;;;;38.10;25.73;;;;;;;7.42;51.30;101139.13;5048958;28;42567;-84
2023/02/10 11:28:36;;;;;;;39.83;25.73;;;;;;;7.51;51.42;101133.75;5034928;28;39575;-81
2023/02/10 11:31:07;;;;;;;39.03;26.83;;;;;;;7.53;50.80;101133.75;5051855;28;41862;-82
2023/02/10 11:33:36;;;;;;;34.57;25.33;;;;;;;7.71;51.00;101132.59;5048303;28;42653;-81
2023/02/10 11:36:07;;;;;;;37.87;26.07;;;;;;;7.88;50.43;101130.59;5034073;28;42755;-82
2023/02/10 11:38:37;;;;;;;37.57;24.87;;;;;;;7.98;50.20;101126.91;5033964;28;39853;-82
2023/02/10 11:41:08;;;;;;;36.27;25.20;;;;;;;8.08;49.86;101115.31;5033807;28;43053;-85
2023/02/10 11:43:42;;;;;;;36.97;24.87;;;;;;;8.24;49.82;101122.09;5051154;28;41585;-81
2023/02/10 11:46:20;;;;;;;37.90;24.07;;;;;;;8.33;48.78;101130.78;5047990;28;42960;-80
2023/02/10 11:48:55;;;;;;;35.37;23.53;;;;;;;8.33;49.31;101109.66;5048036;28;39929;-82
2023/02/10 11:51:23;;;;;;;33.07;24.37;;;;;;;8.62;49.12;101124.09;5033858;28;42286;-80
2023/02/10 11:53:51;;;;;;;32.80;22.87;;;;;;;8.83;48.94;101125.44;5034139;28;43316;-82
2023/02/10 11:58:58;;;;;;;36.67;25.33;;;;;;;8.95;47.53;101130.50;5050348;28;43162;-81
2023/02/10 11:59:24;;;;;;;37.60;23.83;;;;;;;8.86;47.29;101103.38;5050544;28;42558;-84
2023/02/10 12:01:58;;;;;;;37.27;25.07;;;;;;;9.12;47.41;101130.16;5033905;28;40568;-83
2023/02/10 12:04:53;;;;;;;35.97;24.27;;;;;;;9.10;47.30;101131.97;5047196;28;42990;-80
2023/02/10 12:07:30;;;;;;;37.10;24.47;;;;;;;9.03;47.15;101125.03;5067404;28;41138;-81
2023/02/10 12:10:05;;;;;;;34.23;24.30;;;;;;;8.93;47.27;101111.16;5033615;28;40345;-82
2023/02/10 12:12:43;;;;;;;34.80;24.23;;;;;;;9.10;47.03;101125.81;5033238;28;41604;-82
2023/02/10 12:15:28;;;;;;;34.37;25.63;;;;;;;9.08;47.12;101117.03;5047043;28;44068;-81
2023/02/10 12:18:10;;;;;;;37.27;25.17;;;;;;;9.16;46.92;101120.38;5033452;28;42493;-81
2023/02/10 12:20:50;;;;;;;34.37;24.13;;;;;;;9.27;47.44;101107.84;5063842;28;40377;-80
2023/02/10 12:23:45;;;;;;;38.33;23.43;;;;;;;9.39;46.53;101106.69;5034113;28;40821;-81
2023/02/10 12:26:24;;;;;;;36.30;25.20;;;;;;;9.36;46.51;101118.22;5049346;28;45090;-80
2023/02/10 12:29:03;;;;;;;32.90;24.30;;;;;;;9.32;46.03;101111.22;5048478;28;42234;-79
2023/02/10 12:31:43;;;;;;;37.03;23.97;;;;;;;9.19;46.64;101088.59;5047302;28;40732;-81
2023/02/10 12:34:46;;;;;;;39.50;25.80;;;;;;;9.35;46.37;101108.53;5033700;28;41519;-81
2023/02/10 12:37:26;;;;;;;37.37;25.23;;;;;;;9.43;46.63;101103.06;5045339;28;42726;-82
2023/02/10 12:40:00;;;;;;;35.70;24.87;;;;;;;9.60;46.70;101104.44;5032855;28;43180;-79
2023/02/10 12:42:45;;;;;;;33.07;23.43;;;;;;;9.75;45.56;101112.94;5033396;28;40268;-84
2023/02/10 12:45:21;;;;;;;35.93;24.33;;;;;;;9.55;45.76;101056.03;5049526;28;41835;-77
2023/02/10 12:48:00;;;;;;;32.50;22.37;;;;;;;10.02;46.11;101104.31;5050140;28;43558;-80
2023/02/10 12:50:47;;;;;;;31.77;22.03;;;;;;;10.13;45.35;101104.97;5046348;28;42672;-83
2023/02/10 12:53:19;;;;;;;32.60;23.87;;;;;;;10.18;45.05;101104.81;5049766;28;40757;-81
2023/02/10 12:55:54;;;;;;;35.30;23.97;;;;;;;10.20;45.06;101098.63;5049111;28;41704;-78
2023/02/10 12:58:26;;;;;;;33.80;24.13;;;;;;;10.32;45.21;101098.31;5049849;28;43672;-80
2023/02/10 13:00:59;;;;;;;38.83;24.73;;;;;;;10.43;45.08;101085.66;5036157;28;44183;-79
2023/02/10 13:03:34;;;;;;;34.17;23.63;;;;;;;10.68;44.94;101100.91;5036312;28;38796;-82
2023/02/10 13:06:18;;;;;;;36.63;25.10;;;;;;;10.85;44.21;101098.66;5052403;28;41754;-80
2023/02/10 13:08:51;;;;;;;39.20;24.57;;;;;;;11.00;43.81;101098.19;5036506;28;42961;-81
2023/02/10 13:11:28;;;;;;;30.93;22.97;;;;;;;11.15;44.22;101095.13;5035918;28;41498;-81
2023/02/10 13:13:58;;;;;;;36.03;24.53;;;;;;;11.26;43.47;101089.50;5050366;28;41041;-83
2023/02/10 13:16:32;;;;;;;33.90;22.83;;;;;;;11.36;43.64;101080.38;5052647;28;40502;-81